createdAt,value
2017-10-13T00:01:17.991Z,102375.72
2017-10-13T00:03:46.323Z,102366.66
2017-10-13T00:06:14.680Z,102367.50
2017-10-13T00:08:43.765Z,102364.91
2017-10-13T00:11:12.087Z,102368.78
2017-10-13T00:13:40.412Z,102370.30
2017-10-13T00:16:08.737Z,102378.52
2017-10-13T00:18:37.922Z,102374.50
2017-10-13T00:21:06.255Z,102369.55
2017-10-13T00:23:34.585Z,102370.06
2017-10-13T00:26:02.922Z,102369.58
2017-10-13T00:28:31.369Z,102377.72
2017-10-13T00:31:00.469Z,102386.23
2017-10-13T00:33:29.571Z,102391.54
2017-10-13T00:35:58.667Z,102380.48
2017-10-13T00:38:27.919Z,102386.17
2017-10-13T00:40:56.288Z,102378.73
2017-10-13T00:43:24.618Z,102386.20
2017-10-13T00:45:52.999Z,102376.28
2017-10-13T00:48:21.322Z,102380.84
2017-10-13T00:50:49.649Z,102376.64
2017-10-13T00:53:17.969Z,102366.16
2017-10-13T00:55:46.309Z,102370.08
2017-10-13T00:58:14.624Z,102366.72
2017-10-13T01:00:43.716Z,102371.02
2017-10-13T01:03:12.816Z,102365.95
2017-10-13T01:05:41.910Z,102375.72
2017-10-13T01:08:10.984Z,102372.68
2017-10-13T01:10:39.311Z,102373.09
2017-10-13T01:13:07.619Z,102371.03
2017-10-13T01:15:35.941Z,102368.25
2017-10-13T01:18:04.248Z,102369.09
2017-10-13T01:20:33.339Z,102369.02
2017-10-13T01:23:02.430Z,102373.45
2017-10-13T01:25:30.754Z,102373.09
2017-10-13T01:27:59.061Z,102369.39
2017-10-13T01:30:27.388Z,102373.78
2017-10-13T01:32:56.472Z,102358.06
2017-10-13T01:35:24.808Z,102360.55
2017-10-13T01:37:53.956Z,102358.03
2017-10-13T01:40:23.152Z,102352.88
2017-10-13T01:42:51.503Z,102352.73
2017-10-13T01:45:19.983Z,102348.53
2017-10-13T01:47:48.294Z,102359.03
2017-10-13T01:50:16.623Z,102365.95
2017-10-13T01:52:45.019Z,102364.40
2017-10-13T01:55:13.339Z,102365.41
2017-10-13T01:57:41.838Z,102358.59
2017-10-13T02:00:10.169Z,102357.55
2017-10-13T02:02:38.553Z,102358.07
2017-10-13T02:05:06.895Z,102363.65
2017-10-13T02:07:35.978Z,102347.73
2017-10-13T02:10:04.309Z,102353.93
2017-10-13T02:12:32.622Z,102362.58
2017-10-13T02:15:00.949Z,102362.63
2017-10-13T02:17:30.014Z,102358.25
2017-10-13T02:19:58.360Z,102362.52
2017-10-13T02:22:26.670Z,102352.37
2017-10-13T02:24:54.997Z,102350.56
2017-10-13T02:27:24.092Z,102351.06
2017-10-13T02:29:53.258Z,102342.19
2017-10-13T02:32:21.590Z,102343.58
2017-10-13T02:34:49.907Z,102337.47
2017-10-13T02:37:18.239Z,102342.60
2017-10-13T02:39:46.568Z,102346.30
2017-10-13T02:42:14.884Z,102347.46
2017-10-13T02:44:43.516Z,102349.88
2017-10-13T02:47:11.841Z,102349.28
2017-10-13T02:49:40.158Z,102355.06
2017-10-13T02:52:09.248Z,102360.78
2017-10-13T02:54:38.424Z,102362.03
2017-10-13T02:57:06.752Z,102370.17
2017-10-13T02:59:35.059Z,102366.24
2017-10-13T03:02:03.396Z,102366.84
2017-10-13T03:04:32.487Z,102376.64
2017-10-13T03:07:01.597Z,102375.39
2017-10-13T03:09:30.673Z,102380.43
2017-10-13T03:11:58.996Z,102376.41
2017-10-13T03:14:27.308Z,102374.56
2017-10-13T03:16:55.628Z,102371.88
2017-10-13T03:19:24.711Z,102374.73
2017-10-13T03:21:53.039Z,102375.06
2017-10-13T03:24:21.339Z,102365.20
2017-10-13T03:26:49.664Z,102366.95
2017-10-13T03:29:17.992Z,102373.31
2017-10-13T03:31:46.695Z,102369.46
2017-10-13T03:34:15.864Z,102370.09
2017-10-13T03:36:44.945Z,102369.66
2017-10-13T03:39:13.289Z,102369.36
2017-10-13T03:41:41.612Z,102371.92
2017-10-13T03:44:10.687Z,102374.86
2017-10-13T03:46:39.015Z,102376.08
2017-10-13T03:49:07.338Z,102379.27
2017-10-13T03:51:35.665Z,102376.42
2017-10-13T03:54:04.778Z,102375.41
2017-10-13T03:56:33.088Z,102373.23
2017-10-13T03:59:01.448Z,102374.67
2017-10-13T04:01:29.760Z,102367.48
2017-10-13T04:03:58.082Z,102372.85
2017-10-13T04:06:27.332Z,102379.47
2017-10-13T04:08:55.636Z,102378.34
2017-10-13T04:11:23.972Z,102382.19
2017-10-13T04:13:52.274Z,102383.19
2017-10-13T04:16:20.651Z,102373.20
2017-10-13T04:18:49.000Z,102372.47
2017-10-13T04:21:18.098Z,102372.08
2017-10-13T04:23:47.207Z,102378.47
2017-10-13T04:26:16.318Z,102375.13
2017-10-13T04:28:45.398Z,102373.78
2017-10-13T04:31:14.487Z,102373.84
2017-10-13T04:33:42.805Z,102374.83
2017-10-13T04:36:11.192Z,102380.13
2017-10-13T04:38:39.509Z,102376.34
2017-10-13T04:41:07.828Z,102383.28
2017-10-13T04:43:36.914Z,102386.36
2017-10-13T04:46:06.002Z,102383.48
2017-10-13T04:48:34.310Z,102384.41
2017-10-13T04:51:03.399Z,102389.55
2017-10-13T04:53:32.503Z,102391.94
2017-10-13T04:56:01.603Z,102393.70
2017-10-13T04:58:30.671Z,102381.14
2017-10-13T05:00:58.998Z,102378.08
2017-10-13T05:03:27.330Z,102371.52
2017-10-13T05:05:55.655Z,102380.43
2017-10-13T05:08:24.751Z,102383.53
2017-10-13T05:10:53.841Z,102383.20
2017-10-13T05:13:22.200Z,102387.41
2017-10-13T05:15:50.518Z,102387.08
2017-10-13T05:18:19.606Z,102382.39
2017-10-13T05:20:48.666Z,102392.62
2017-10-13T05:23:17.010Z,102387.94
2017-10-13T05:25:45.319Z,102390.17
2017-10-13T05:28:13.632Z,102389.19
2017-10-13T05:30:41.951Z,102384.42
2017-10-13T05:33:10.280Z,102386.00
2017-10-13T05:35:38.576Z,102388.56
2017-10-13T05:38:07.662Z,102380.73
2017-10-13T05:40:35.979Z,102397.66
2017-10-13T05:43:05.048Z,102395.89
2017-10-13T05:45:33.368Z,102399.92
2017-10-13T05:48:02.768Z,102402.34
2017-10-13T05:50:31.921Z,102407.34
2017-10-13T05:53:00.239Z,102413.52
2017-10-13T05:55:28.552Z,102405.50
2017-10-13T05:57:56.866Z,102403.98
2017-10-13T06:00:25.168Z,102405.80
2017-10-13T06:02:53.470Z,102409.91
2017-10-13T06:05:22.656Z,102409.17
2017-10-13T06:07:51.023Z,102406.66
2017-10-13T06:10:19.318Z,102415.04
2017-10-13T06:12:47.650Z,102421.90
2017-10-13T06:15:15.979Z,102418.29
2017-10-13T06:17:44.307Z,102411.08
2017-10-13T06:20:12.665Z,102410.33
2017-10-13T06:22:41.762Z,102412.00
2017-10-13T06:25:10.858Z,102412.66
2017-10-13T06:27:40.710Z,102411.67
2017-10-13T06:30:09.036Z,102406.09
2017-10-13T06:32:37.352Z,102404.15
2017-10-13T06:35:06.417Z,102403.25
2017-10-13T06:37:34.718Z,102397.99
2017-10-13T06:40:03.856Z,102397.45
2017-10-13T06:42:32.160Z,102389.95
2017-10-13T06:45:00.476Z,102396.27
2017-10-13T06:47:28.800Z,102392.35
2017-10-13T06:49:57.117Z,102396.92
2017-10-13T06:52:25.438Z,102394.45
2017-10-13T06:54:54.523Z,102407.28
2017-10-13T06:57:22.868Z,102397.67
2017-10-13T06:59:51.171Z,102393.52
2017-10-13T07:02:19.476Z,102389.25
2017-10-13T07:04:48.543Z,102394.41
2017-10-13T07:07:16.840Z,102396.91
2017-10-13T07:09:45.156Z,102390.66
2017-10-13T07:12:13.937Z,102392.31
2017-10-13T07:14:42.270Z,102390.39
2017-10-13T07:17:10.603Z,102394.83
2017-10-13T07:19:39.680Z,102404.89
2017-10-13T07:22:08.010Z,102412.91
2017-10-13T07:24:36.312Z,102413.69
2017-10-13T07:27:04.671Z,102415.77
2017-10-13T07:29:32.996Z,102412.55
2017-10-13T07:32:01.336Z,102415.37
2017-10-13T07:34:29.636Z,102416.81
2017-10-13T07:36:58.035Z,102417.88
2017-10-13T07:39:26.351Z,102418.99
2017-10-13T07:41:55.501Z,102418.48
2017-10-13T07:44:23.807Z,102423.16
2017-10-13T07:46:52.131Z,102425.56
2017-10-13T07:49:20.617Z,102419.89
2017-10-13T07:51:48.917Z,102429.45
2017-10-13T07:54:17.293Z,102433.71
2017-10-13T07:56:45.595Z,102436.05
2017-10-13T07:59:13.939Z,102433.71
2017-10-13T08:01:43.035Z,102431.98
2017-10-13T08:04:12.113Z,102441.83
2017-10-13T08:06:40.425Z,102443.36
2017-10-13T08:09:08.733Z,102451.63
2017-10-13T08:11:37.050Z,102446.89
2017-10-13T08:14:05.406Z,102446.70
2017-10-13T08:16:33.722Z,102446.09
2017-10-13T08:19:02.043Z,102450.73
2017-10-13T08:21:30.374Z,102444.72
2017-10-13T08:23:58.743Z,102456.09
2017-10-13T08:26:27.063Z,102444.09
2017-10-13T08:28:56.126Z,102450.31
2017-10-13T08:31:24.446Z,102456.78
2017-10-13T08:33:53.519Z,102450.89
2017-10-13T08:36:21.817Z,102448.77
2017-10-13T08:38:50.162Z,102449.23
2017-10-13T08:41:18.492Z,102455.47
2017-10-13T08:43:47.556Z,102457.39
2017-10-13T08:46:15.864Z,102456.60
2017-10-13T08:48:44.944Z,102455.89
2017-10-13T08:51:13.309Z,102461.78
2017-10-13T08:53:41.844Z,102462.82
2017-10-13T08:56:10.913Z,102455.58
2017-10-13T08:58:39.237Z,102459.30
2017-10-13T09:01:07.556Z,102462.75
2017-10-13T09:03:35.851Z,102459.12
2017-10-13T09:06:04.176Z,102458.39
2017-10-13T09:08:32.488Z,102462.56
2017-10-13T09:11:00.798Z,102458.61
2017-10-13T09:13:29.116Z,102456.72
2017-10-13T09:15:58.205Z,102451.53
2017-10-13T09:18:27.307Z,102444.80
2017-10-13T09:20:56.384Z,102452.38
2017-10-13T09:23:24.699Z,102447.80
2017-10-13T09:25:53.853Z,102446.55
2017-10-13T09:28:22.171Z,102450.58
2017-10-13T09:30:51.242Z,102445.27
2017-10-13T09:33:19.602Z,102449.21
2017-10-13T09:35:47.954Z,102449.21
2017-10-13T09:38:16.254Z,102458.88
2017-10-13T09:40:44.578Z,102461.69
2017-10-13T09:43:12.880Z,102467.89
2017-10-13T09:45:41.967Z,102468.41
2017-10-13T09:48:11.057Z,102474.30
2017-10-13T09:50:39.379Z,102466.50
2017-10-13T09:53:07.874Z,102458.03
2017-10-13T09:55:36.179Z,102465.98
2017-10-13T09:58:04.489Z,102472.95
2017-10-13T10:00:32.804Z,102480.62
2017-10-13T10:03:01.115Z,102473.42
2017-10-13T10:05:29.431Z,102474.68
2017-10-13T10:07:57.879Z,102477.20
2017-10-13T10:10:26.195Z,102474.30
2017-10-13T10:12:54.517Z,102472.33
2017-10-13T10:15:22.826Z,102473.97
2017-10-13T10:17:51.129Z,102478.61
2017-10-13T10:20:19.634Z,102483.69
2017-10-13T10:22:47.947Z,102480.44
2017-10-13T10:25:16.249Z,102477.50
2017-10-13T10:27:44.585Z,102471.39
2017-10-13T10:30:12.946Z,102475.98
2017-10-13T10:32:41.242Z,102479.52
2017-10-13T10:35:09.561Z,102475.23
2017-10-13T10:37:37.883Z,102464.09
2017-10-13T10:40:06.194Z,102464.11
2017-10-13T10:42:34.512Z,102461.95
2017-10-13T10:45:02.806Z,102475.75
2017-10-13T10:47:31.101Z,102475.14
2017-10-13T10:49:59.397Z,102470.13
2017-10-13T10:52:27.694Z,102473.53
2017-10-13T10:54:56.000Z,102455.38
2017-10-13T10:57:25.076Z,102459.27
2017-10-13T10:59:53.468Z,102470.48
2017-10-13T11:02:21.813Z,102472.10
2017-10-13T11:04:50.109Z,102474.14
2017-10-13T11:07:18.407Z,102472.22
2017-10-13T11:09:46.726Z,102473.10
2017-10-13T11:12:15.040Z,102483.17
2017-10-13T11:14:43.424Z,102488.46
2017-10-13T11:17:11.733Z,102497.66
2017-10-13T11:19:40.031Z,102506.86
2017-10-13T11:22:09.106Z,102505.37
2017-10-13T11:24:37.460Z,102494.13
2017-10-13T11:27:05.802Z,102493.42
2017-10-13T11:29:34.873Z,102496.93
2017-10-13T11:32:03.202Z,102486.16
2017-10-13T11:34:31.520Z,102486.83
2017-10-13T11:36:59.836Z,102474.81
2017-10-13T11:39:28.893Z,102481.34
2017-10-13T11:41:58.039Z,102476.91
2017-10-13T11:44:27.117Z,102492.36
2017-10-13T11:49:23.827Z,102488.27
2017-10-13T11:51:52.125Z,102486.11
2017-10-13T11:54:20.439Z,102482.48
2017-10-13T11:56:48.741Z,102495.85
2017-10-13T11:59:17.817Z,102489.73
2017-10-13T12:01:46.142Z,102486.27
2017-10-13T12:04:14.482Z,102483.48
2017-10-13T12:06:42.776Z,102484.52
2017-10-13T12:09:11.068Z,102480.74
2017-10-13T12:11:40.147Z,102468.71
2017-10-13T12:14:08.444Z,102471.03
2017-10-13T12:16:37.498Z,102466.44
2017-10-13T12:19:05.836Z,102467.91
2017-10-13T12:21:34.968Z,102464.73
2017-10-13T12:24:03.312Z,102467.77
2017-10-13T12:26:32.379Z,102474.98
2017-10-13T12:29:00.699Z,102478.73
2017-10-13T12:31:29.900Z,102478.73
2017-10-13T12:33:58.965Z,102487.30
2017-10-13T12:36:27.279Z,102480.07
2017-10-13T12:38:56.363Z,102477.53
2017-10-13T12:41:25.094Z,102482.72
2017-10-13T12:43:53.399Z,102486.67
2017-10-13T12:46:21.714Z,102488.91
2017-10-13T12:48:50.024Z,102483.77
2017-10-13T12:51:18.327Z,102483.05
2017-10-13T12:53:46.645Z,102484.06
2017-10-13T12:56:15.799Z,102488.44
2017-10-13T12:58:44.130Z,102488.75
2017-10-13T13:01:12.510Z,102478.34
2017-10-13T13:03:41.596Z,102490.24
2017-10-13T13:06:09.918Z,102483.01
2017-10-13T13:08:39.036Z,102481.56
2017-10-13T13:11:07.346Z,102486.14
2017-10-13T13:13:35.806Z,102482.09
2017-10-13T13:16:04.191Z,102479.58
2017-10-13T13:18:32.553Z,102483.76
2017-10-13T13:21:01.683Z,102472.50
2017-10-13T13:23:30.002Z,102467.92
2017-10-13T13:25:58.384Z,102477.19
2017-10-13T13:28:26.692Z,102472.93
2017-10-13T13:30:55.760Z,102470.01
2017-10-13T13:33:24.080Z,102478.01
2017-10-13T13:35:53.150Z,102475.41
2017-10-13T13:38:21.464Z,102470.20
2017-10-13T13:40:50.532Z,102472.70
2017-10-13T13:43:19.600Z,102469.58
2017-10-13T13:45:47.907Z,102458.08
2017-10-13T13:48:16.220Z,102454.64
2017-10-13T13:50:45.340Z,102459.00
2017-10-13T13:53:13.814Z,102460.84
2017-10-13T13:55:42.124Z,102456.17
2017-10-13T13:58:10.444Z,102458.36
2017-10-13T14:00:38.740Z,102454.41
2017-10-13T14:03:07.049Z,102463.39
2017-10-13T14:05:35.381Z,102458.97
2017-10-13T14:08:03.689Z,102455.89
2017-10-13T14:10:32.776Z,102444.80
2017-10-13T14:13:01.066Z,102453.37
2017-10-13T14:15:30.141Z,102453.30
2017-10-13T14:17:58.455Z,102448.57
2017-10-13T14:20:27.541Z,102453.96
2017-10-13T14:22:55.844Z,102459.97
2017-10-13T14:25:24.947Z,102449.83
2017-10-13T14:27:54.035Z,102449.84
2017-10-13T14:30:23.097Z,102442.63
2017-10-13T14:32:51.399Z,102454.95
2017-10-13T14:35:19.708Z,102452.17
2017-10-13T14:37:48.863Z,102444.71
2017-10-13T14:40:17.179Z,102451.71
2017-10-13T14:42:46.305Z,102452.66
2017-10-13T14:45:14.598Z,102454.77
2017-10-13T14:47:42.925Z,102458.42
2017-10-13T14:50:11.241Z,102448.88
2017-10-13T14:52:39.543Z,102450.53
2017-10-13T14:55:07.848Z,102439.30
2017-10-13T14:57:36.195Z,102440.09
2017-10-13T15:00:04.512Z,102439.31
2017-10-13T15:02:32.821Z,102439.70
2017-10-13T15:05:01.960Z,102437.23
2017-10-13T15:07:30.257Z,102439.63
2017-10-13T15:09:58.557Z,102437.39
2017-10-13T15:12:26.860Z,102442.61
2017-10-13T15:14:55.162Z,102441.89
2017-10-13T15:17:24.277Z,102440.25
2017-10-13T15:19:52.573Z,102436.63
2017-10-13T15:22:20.903Z,102446.31
2017-10-13T15:24:55.567Z,102443.25
2017-10-13T15:41:01.321Z,102451.30
2017-10-13T15:43:35.167Z,102453.42
2017-10-13T15:46:09.908Z,102456.05
2017-10-13T15:48:38.321Z,102450.42
2017-10-13T15:51:12.233Z,102449.92
2017-10-13T15:53:40.549Z,102451.28
2017-10-13T15:56:08.851Z,102463.62
2017-10-13T15:58:37.913Z,102451.86
2017-10-13T16:01:06.211Z,102450.73
2017-10-13T16:03:34.544Z,102457.81
2017-10-13T16:06:02.851Z,102454.15
2017-10-13T16:08:31.163Z,102447.73
2017-10-13T16:11:00.236Z,102452.53
2017-10-13T16:13:28.543Z,102461.08
2017-10-13T16:15:56.963Z,102455.16
2017-10-13T16:18:25.285Z,102458.90
2017-10-13T16:20:53.581Z,102452.04
2017-10-13T16:23:21.889Z,102455.62
2017-10-13T16:25:50.949Z,102448.95
2017-10-13T16:28:19.267Z,102426.39
2017-10-13T16:30:48.365Z,102425.25
2017-10-13T16:33:17.437Z,102424.12
2017-10-13T16:35:45.732Z,102422.91
2017-10-13T16:38:14.036Z,102421.36
2017-10-13T16:40:42.350Z,102427.61
2017-10-13T16:43:10.661Z,102415.44
2017-10-13T16:45:38.962Z,102422.97
2017-10-13T16:48:08.035Z,102423.60
2017-10-13T16:50:36.345Z,102419.97
2017-10-13T16:53:05.513Z,102416.27
2017-10-13T16:55:33.823Z,102418.56
2017-10-13T16:58:02.903Z,102423.04
2017-10-13T17:00:31.219Z,102426.41
2017-10-13T17:02:59.522Z,102425.58
2017-10-13T17:05:27.815Z,102424.44
2017-10-13T17:07:56.116Z,102426.20
2017-10-13T17:10:24.426Z,102422.81
2017-10-13T17:12:53.496Z,102432.89
2017-10-13T17:15:22.055Z,102433.00
2017-10-13T17:17:50.353Z,102436.33
2017-10-13T17:20:18.982Z,102437.05
2017-10-13T17:22:48.045Z,102435.80
2017-10-13T17:25:16.352Z,102440.90
2017-10-13T17:27:44.672Z,102444.33
2017-10-13T17:30:13.128Z,102445.68
2017-10-13T17:32:42.340Z,102444.33
2017-10-13T17:35:11.419Z,102451.30
2017-10-13T17:37:39.733Z,102444.95
2017-10-13T17:40:08.061Z,102453.79
2017-10-13T17:42:36.371Z,102459.09
2017-10-13T17:45:05.521Z,102460.23
2017-10-13T17:47:33.824Z,102454.31
2017-10-13T17:50:02.133Z,102449.73
2017-10-13T17:52:31.218Z,102459.92
2017-10-13T17:54:59.547Z,102455.77
2017-10-13T17:57:27.862Z,102459.81
2017-10-13T17:59:56.298Z,102461.27
2017-10-13T18:02:25.373Z,102457.33
2017-10-13T18:04:53.688Z,102461.17
2017-10-13T18:07:22.000Z,102463.04
2017-10-13T18:09:50.316Z,102467.09
2017-10-13T18:12:19.412Z,102458.26
2017-10-13T18:14:47.715Z,102463.25
2017-10-13T18:17:16.893Z,102458.78
2017-10-13T18:19:45.205Z,102455.34
2017-10-13T18:22:13.514Z,102457.53
2017-10-13T18:24:41.822Z,102461.79
2017-10-13T18:27:10.120Z,102463.66
2017-10-13T18:29:38.434Z,102466.36
2017-10-13T18:32:06.736Z,102468.13
2017-10-13T18:34:35.021Z,102468.44
2017-10-13T18:37:03.320Z,102474.25
2017-10-13T18:39:31.620Z,102471.23
2017-10-13T18:41:59.957Z,102479.45
2017-10-13T18:44:31.093Z,102477.69
2017-10-13T18:46:59.388Z,102479.45
2017-10-13T18:49:27.731Z,102483.09
2017-10-13T18:51:56.854Z,102480.59
2017-10-13T18:54:25.162Z,102481.73
2017-10-13T18:56:53.515Z,102479.76
2017-10-13T18:59:21.822Z,102480.59
2017-10-13T19:01:50.166Z,102479.76
2017-10-13T19:04:18.478Z,102470.92
2017-10-13T19:06:46.784Z,102471.16
2017-10-13T19:09:15.083Z,102473.14
2017-10-13T19:11:43.410Z,102472.82
2017-10-13T19:14:11.729Z,102471.67
2017-10-13T19:16:40.050Z,102472.72
2017-10-13T19:19:09.127Z,102466.80
2017-10-13T19:21:38.212Z,102482.07
2017-10-13T19:24:06.542Z,102482.48
2017-10-13T19:26:34.852Z,102479.57
2017-10-13T19:29:03.172Z,102479.88
2017-10-13T19:31:32.269Z,102481.55
2017-10-13T19:34:00.593Z,102483.20
2017-10-13T19:36:28.912Z,102484.27
2017-10-13T19:38:57.242Z,102480.52
2017-10-13T19:41:25.552Z,102474.17
2017-10-13T19:43:53.884Z,102476.68
2017-10-13T19:46:22.971Z,102473.04
2017-10-13T19:48:51.305Z,102478.53
2017-10-13T19:51:19.719Z,102477.80
2017-10-13T19:53:48.021Z,102480.09
2017-10-13T19:56:16.337Z,102485.08
2017-10-13T19:58:44.672Z,102488.51
2017-10-13T20:01:12.986Z,102485.17
2017-10-13T20:03:41.318Z,102485.08
2017-10-13T20:06:09.623Z,102485.39
2017-10-13T20:08:37.945Z,102486.74
2017-10-13T20:11:06.281Z,102491.31
2017-10-13T20:13:34.578Z,102491.62
2017-10-13T20:16:03.652Z,102479.56
2017-10-13T20:18:31.944Z,102482.91
2017-10-13T20:21:00.288Z,102480.31
2017-10-13T20:23:28.580Z,102477.28
2017-10-13T20:25:56.874Z,102480.61
2017-10-13T20:28:25.208Z,102481.56
2017-10-13T20:30:53.509Z,102492.56
2017-10-13T20:33:21.954Z,102489.45
2017-10-13T20:35:51.066Z,102489.86
2017-10-13T20:38:19.371Z,102485.59
2017-10-13T20:40:47.670Z,102484.96
2017-10-13T20:43:15.969Z,102489.21
2017-10-13T20:45:44.268Z,102491.00
2017-10-13T20:48:13.342Z,102488.80
2017-10-13T20:50:41.650Z,102487.86
2017-10-13T20:53:10.715Z,102481.20
2017-10-13T20:55:39.012Z,102477.89
2017-10-13T20:58:07.307Z,102478.40
2017-10-13T21:00:35.604Z,102480.25
2017-10-13T21:03:04.729Z,102473.20
2017-10-13T21:05:33.186Z,102475.86
2017-10-13T21:08:02.261Z,102478.55
2017-10-13T21:10:30.587Z,102483.50
2017-10-13T21:15:20.458Z,102485.16
2017-10-13T21:17:48.778Z,102483.09
2017-10-13T21:20:17.196Z,102487.84
2017-10-13T21:22:45.503Z,102484.41
2017-10-13T21:25:13.844Z,102491.04
2017-10-13T21:27:42.140Z,102486.88
2017-10-13T21:30:10.484Z,102490.32
2017-10-13T21:32:38.849Z,102492.28
2017-10-13T21:35:07.213Z,102495.06
2017-10-13T21:37:35.543Z,102493.49
2017-10-13T21:40:03.871Z,102497.20
2017-10-13T21:42:32.208Z,102496.89
2017-10-13T21:45:00.536Z,102509.22
2017-10-13T21:47:29.632Z,102508.48
2017-10-13T21:49:57.968Z,102509.20
2017-10-13T21:52:26.307Z,102506.38
2017-10-13T21:54:55.387Z,102504.42
2017-10-13T21:57:23.721Z,102505.88
2017-10-13T21:59:52.035Z,102501.70
2017-10-13T22:02:20.356Z,102508.33
2017-10-13T22:04:55.097Z,102511.13
2017-10-13T22:07:23.418Z,102507.78
2017-10-13T22:09:51.752Z,102502.91
2017-10-13T22:12:20.836Z,102510.88
2017-10-13T22:14:49.944Z,102514.06
2017-10-13T22:17:19.026Z,102503.58
2017-10-13T22:19:47.348Z,102512.69
2017-10-13T22:22:15.686Z,102510.70
2017-10-13T22:24:44.055Z,102509.65
2017-10-13T22:27:12.401Z,102522.80
2017-10-13T22:29:40.736Z,102518.44
2017-10-13T22:32:09.060Z,102506.51
2017-10-13T22:34:37.382Z,102504.94
2017-10-13T22:37:05.742Z,102513.12
2017-10-13T22:39:34.084Z,102509.34
2017-10-13T22:42:03.173Z,102505.17
2017-10-13T22:44:32.256Z,102505.14
2017-10-13T22:47:00.584Z,102510.50
2017-10-13T22:49:28.958Z,102505.50
2017-10-13T22:51:57.281Z,102504.22
2017-10-13T22:54:25.604Z,102503.67
2017-10-13T22:56:54.685Z,102511.23
2017-10-13T22:59:23.779Z,102509.95
2017-10-13T23:01:52.100Z,102516.65
2017-10-13T23:04:20.433Z,102511.23
2017-10-13T23:06:48.762Z,102518.09
2017-10-13T23:09:17.118Z,102515.78
2017-10-13T23:11:45.448Z,102523.11
2017-10-13T23:14:13.749Z,102533.56
2017-10-13T23:16:42.057Z,102525.67
2017-10-13T23:19:10.392Z,102523.82
2017-10-13T23:21:38.705Z,102530.64
2017-10-13T23:24:07.041Z,102532.69
2017-10-13T23:26:35.483Z,102539.61
2017-10-13T23:29:03.874Z,102549.97
2017-10-13T23:31:32.951Z,102545.50
2017-10-13T23:34:01.268Z,102547.88
2017-10-13T23:36:30.360Z,102545.47
2017-10-13T23:38:59.426Z,102548.34
2017-10-13T23:41:27.738Z,102544.08
2017-10-13T23:43:56.828Z,102548.40
2017-10-13T23:46:25.161Z,102532.84
2017-10-13T23:48:53.511Z,102541.30
2017-10-13T23:51:22.595Z,102537.77
2017-10-13T23:53:51.710Z,102536.90
2017-10-13T23:56:20.812Z,102530.68
2017-10-13T23:58:49.149Z,102530.96
